createdAt,value
2018-12-15T00:01:48.604Z,29.00
2018-12-15T00:04:15.603Z,29.97
2018-12-15T00:06:42.568Z,30.60
2018-12-15T00:09:09.624Z,28.03
2018-12-15T00:11:36.627Z,26.40
2018-12-15T00:14:03.824Z,28.57
2018-12-15T00:16:30.844Z,26.13
2018-12-15T00:18:57.884Z,29.10
2018-12-15T00:21:24.867Z,27.97
2018-12-15T00:23:51.844Z,29.70
2018-12-15T00:26:18.844Z,28.77
2018-12-15T00:28:45.824Z,28.87
2018-12-15T00:31:19.763Z,27.83
2018-12-15T00:33:46.744Z,31.83
2018-12-15T00:36:13.701Z,29.80
2018-12-15T00:38:40.704Z,27.33
2018-12-15T00:41:07.686Z,28.97
2018-12-15T00:43:34.704Z,28.07
2018-12-15T00:46:01.704Z,27.23
2018-12-15T00:48:28.765Z,25.10
2018-12-15T00:50:55.763Z,33.47
2018-12-15T00:53:22.745Z,31.07
2018-12-15T00:55:49.786Z,28.73
2018-12-15T00:58:16.725Z,26.77
2018-12-15T01:00:43.664Z,28.47
2018-12-15T01:03:10.745Z,29.77
2018-12-15T01:05:37.704Z,29.43
2018-12-15T01:08:04.705Z,29.30
2018-12-15T01:10:31.745Z,31.30
2018-12-15T01:12:58.725Z,25.20
2018-12-15T01:15:31.665Z,30.37
2018-12-15T01:17:58.605Z,28.27
2018-12-15T01:20:25.625Z,31.07
2018-12-15T01:22:52.605Z,27.87
2018-12-15T01:25:19.525Z,28.23
2018-12-15T01:27:46.459Z,30.70
2018-12-15T01:30:13.525Z,28.37
2018-12-15T01:32:40.528Z,29.43
2018-12-15T01:35:14.547Z,29.53
2018-12-15T01:37:41.485Z,28.07
2018-12-15T01:40:08.485Z,27.73
2018-12-15T01:42:35.525Z,31.33
2018-12-15T01:45:03.245Z,28.87
2018-12-15T01:47:30.245Z,32.03
2018-12-15T01:49:57.185Z,31.30
2018-12-15T01:52:24.246Z,30.23
2018-12-15T01:54:51.261Z,32.00
2018-12-15T01:57:25.571Z,30.80
2018-12-15T01:59:52.531Z,32.87
2018-12-15T02:02:19.552Z,32.73
2018-12-15T02:04:46.632Z,30.40
2018-12-15T02:07:13.652Z,31.83
2018-12-15T02:09:40.651Z,28.37
2018-12-15T02:12:07.593Z,31.03
2018-12-15T02:14:34.532Z,27.23
2018-12-15T02:17:01.622Z,28.53
2018-12-15T02:19:28.651Z,31.17
2018-12-15T02:21:55.631Z,29.50
2018-12-15T02:24:22.571Z,31.03
2018-12-15T02:26:49.632Z,30.57
2018-12-15T02:29:23.634Z,28.43
2018-12-15T02:31:50.732Z,29.60
2018-12-15T02:34:17.691Z,29.10
2018-12-15T02:36:44.752Z,32.00
2018-12-15T02:39:11.972Z,28.87
2018-12-15T02:41:38.993Z,31.13
2018-12-15T02:44:05.893Z,31.33
2018-12-15T02:46:32.911Z,28.33
2018-12-15T02:48:59.873Z,31.53
2018-12-15T02:51:26.933Z,28.03
2018-12-15T02:53:54.073Z,29.80
2018-12-15T02:56:21.073Z,28.70
2018-12-15T02:58:48.011Z,29.17
2018-12-15T03:01:15.032Z,29.37
2018-12-15T03:03:41.971Z,33.67
2018-12-15T03:06:08.832Z,30.97
2018-12-15T03:08:35.971Z,30.00
2018-12-15T03:11:02.992Z,30.50
2018-12-15T03:13:29.973Z,31.40
2018-12-15T03:15:57.732Z,32.67
2018-12-15T03:18:24.672Z,31.97
2018-12-15T03:21:00.428Z,32.07
2018-12-15T03:23:27.451Z,31.47
2018-12-15T03:25:54.412Z,32.67
2018-12-15T03:28:21.411Z,29.83
2018-12-15T03:30:48.433Z,31.70
2018-12-15T03:33:15.435Z,31.97
2018-12-15T03:35:42.432Z,30.37
2018-12-15T03:38:09.511Z,32.33
2018-12-15T03:40:36.451Z,31.17
2018-12-15T03:43:03.452Z,31.00
2018-12-15T03:45:30.432Z,31.33
2018-12-15T03:48:04.394Z,31.90
2018-12-15T03:50:31.572Z,29.90
2018-12-15T03:52:58.672Z,31.70
2018-12-15T03:55:25.892Z,29.53
2018-12-15T03:57:52.901Z,31.07
2018-12-15T04:00:19.872Z,30.97
2018-12-15T04:02:46.832Z,32.63
2018-12-15T04:05:14.192Z,32.37
2018-12-15T04:07:41.251Z,34.17
2018-12-15T04:10:08.271Z,35.97
2018-12-15T04:12:35.233Z,32.60
2018-12-15T04:15:02.634Z,38.17
2018-12-15T04:17:29.594Z,36.20
2018-12-15T04:19:56.575Z,33.93
2018-12-15T04:22:23.575Z,38.87
2018-12-15T04:24:50.582Z,39.50
2018-12-15T04:27:17.528Z,39.83
2018-12-15T04:29:44.417Z,38.30
2018-12-15T04:32:11.455Z,33.93
2018-12-15T04:34:38.456Z,37.83
2018-12-15T04:37:05.395Z,36.23
2018-12-15T04:39:32.394Z,37.07
2018-12-15T04:41:59.336Z,34.00
2018-12-15T04:44:26.355Z,39.20
2018-12-15T04:46:53.615Z,37.10
2018-12-15T04:49:20.736Z,40.70
2018-12-15T04:51:54.757Z,41.53
2018-12-15T04:54:21.756Z,41.13
2018-12-15T04:56:48.745Z,38.63
2018-12-15T04:59:15.794Z,39.50
2018-12-15T05:01:42.782Z,38.37
2018-12-15T05:04:09.795Z,43.97
2018-12-15T05:06:43.594Z,40.30
2018-12-15T05:09:10.655Z,38.17
2018-12-15T05:11:37.698Z,41.70
2018-12-15T05:14:04.773Z,40.27
2018-12-15T05:16:31.815Z,39.57
2018-12-15T05:18:58.930Z,36.63
2018-12-15T05:21:25.875Z,37.80
2018-12-15T05:23:59.835Z,38.80
2018-12-15T05:26:26.774Z,40.53
2018-12-15T05:28:53.795Z,39.53
2018-12-15T05:31:20.754Z,40.37
2018-12-15T05:33:47.834Z,39.10
2018-12-15T05:36:15.416Z,39.33
2018-12-15T05:38:42.561Z,40.53
2018-12-15T05:41:09.554Z,43.13
2018-12-15T05:43:36.574Z,36.23
2018-12-15T05:46:03.575Z,43.67
2018-12-15T05:48:30.575Z,40.27
2018-12-15T05:50:57.679Z,37.83
2018-12-15T05:53:24.857Z,42.70
2018-12-15T05:55:51.895Z,41.43
2018-12-15T05:58:18.935Z,43.27
2018-12-15T06:00:45.955Z,44.03
2018-12-15T06:03:12.914Z,41.80
2018-12-15T06:05:47.035Z,40.50
2018-12-15T06:08:14.254Z,40.20
2018-12-15T06:10:41.235Z,37.63
2018-12-15T06:13:08.236Z,42.87
2018-12-15T06:15:35.235Z,40.07
2018-12-15T06:18:02.856Z,37.93
2018-12-15T06:20:30.735Z,42.30
2018-12-15T06:22:57.734Z,42.63
2018-12-15T06:25:24.656Z,43.47
2018-12-15T06:27:52.731Z,43.17
2018-12-15T06:30:19.731Z,48.97
2018-12-15T06:32:46.671Z,46.20
2018-12-15T06:35:13.692Z,47.83
2018-12-15T06:37:40.870Z,43.03
2018-12-15T06:40:07.891Z,49.07
2018-12-15T06:42:34.929Z,48.77
2018-12-15T06:45:01.915Z,49.43
2018-12-15T06:47:29.051Z,46.67
2018-12-15T06:49:55.934Z,45.43
2018-12-15T06:52:22.991Z,47.07
2018-12-15T06:54:50.050Z,47.47
2018-12-15T06:57:17.033Z,48.37
2018-12-15T06:59:44.230Z,48.03
2018-12-15T07:02:11.190Z,48.23
2018-12-15T07:04:38.130Z,47.00
2018-12-15T07:07:04.991Z,48.63
2018-12-15T07:09:31.930Z,47.70
2018-12-15T07:11:59.069Z,52.73
2018-12-15T07:14:26.010Z,50.03
2018-12-15T07:16:52.969Z,54.30
2018-12-15T07:19:20.000Z,48.27
2018-12-15T07:21:47.021Z,52.80
2018-12-15T07:24:14.066Z,54.50
2018-12-15T07:26:41.026Z,55.80
2018-12-15T07:29:08.187Z,57.47
2018-12-15T07:31:45.207Z,56.10
2018-12-15T07:34:12.267Z,55.50
2018-12-15T07:36:39.206Z,55.50
2018-12-15T07:39:07.326Z,57.37
2018-12-15T07:41:34.487Z,56.83
2018-12-15T07:44:01.506Z,56.90
2018-12-15T07:46:28.466Z,55.87
2018-12-15T07:48:55.487Z,55.07
2018-12-15T07:51:28.606Z,54.43
2018-12-15T07:53:57.825Z,51.97
2018-12-15T07:56:25.926Z,54.53
2018-12-15T07:58:52.887Z,57.37
2018-12-15T08:01:19.690Z,55.37
2018-12-15T08:03:46.707Z,58.77
2018-12-15T08:06:15.247Z,55.23
2018-12-15T08:08:42.247Z,54.10
2018-12-15T08:11:15.767Z,56.13
2018-12-15T08:13:50.867Z,54.53
2018-12-15T08:16:23.947Z,49.00
2018-12-15T08:18:51.047Z,51.93
2018-12-15T08:21:18.287Z,52.13
2018-12-15T08:23:45.247Z,51.80
2018-12-15T08:26:12.207Z,46.73
2018-12-15T08:28:46.147Z,46.33
2018-12-15T08:31:13.087Z,44.53
2018-12-15T08:33:39.907Z,46.53
2018-12-15T08:36:06.911Z,47.37
2018-12-15T08:38:33.989Z,48.50
2018-12-15T08:41:00.889Z,46.80
2018-12-15T08:43:27.848Z,45.63
2018-12-15T08:45:55.528Z,46.40
2018-12-15T08:48:22.506Z,44.57
2018-12-15T08:50:49.871Z,45.53
2018-12-15T08:53:16.848Z,47.37
2018-12-15T08:55:43.847Z,45.33
2018-12-15T08:58:10.987Z,44.97
2018-12-15T09:00:37.947Z,46.63
2018-12-15T09:03:05.227Z,44.40
2018-12-15T09:05:32.247Z,43.83
2018-12-15T09:07:59.228Z,48.50
2018-12-15T09:10:26.427Z,49.17
2018-12-15T09:12:53.408Z,47.10
2018-12-15T09:15:21.213Z,47.53
2018-12-15T09:17:48.190Z,47.20
2018-12-15T09:20:15.187Z,49.63
2018-12-15T09:22:42.187Z,46.77
2018-12-15T09:25:09.208Z,44.67
2018-12-15T09:27:36.763Z,48.43
2018-12-15T09:30:06.067Z,46.23
2018-12-15T09:32:33.146Z,43.47
2018-12-15T09:35:00.153Z,40.00
2018-12-15T09:37:27.106Z,45.30
2018-12-15T09:39:54.407Z,40.07
2018-12-15T09:42:21.346Z,46.03
2018-12-15T09:44:48.650Z,46.03
2018-12-15T09:47:15.791Z,43.90
2018-12-15T09:49:42.831Z,42.13
2018-12-15T09:52:09.874Z,45.77
2018-12-15T09:54:36.992Z,43.30
2018-12-15T09:57:04.412Z,45.60
2018-12-15T09:59:31.739Z,40.67
2018-12-15T10:01:58.799Z,40.60
2018-12-15T10:04:25.820Z,40.13
2018-12-15T10:06:53.258Z,46.23
2018-12-15T10:09:20.547Z,41.70
2018-12-15T10:11:47.589Z,44.17
2018-12-15T10:14:14.573Z,40.20
2018-12-15T10:16:41.613Z,42.63
2018-12-15T10:19:08.652Z,41.27
2018-12-15T10:21:35.695Z,40.53
2018-12-15T10:24:03.210Z,52.33
2018-12-15T10:26:30.230Z,49.23
2018-12-15T10:28:57.649Z,41.73
2018-12-15T10:34:25.388Z,39.53
2018-12-15T10:36:59.389Z,39.23
2018-12-15T10:39:26.549Z,38.90
2018-12-15T10:41:53.468Z,42.17
2018-12-15T10:44:20.729Z,43.43
2018-12-15T10:46:48.148Z,38.10
2018-12-15T10:49:15.132Z,41.60
2018-12-15T10:51:42.173Z,38.93
2018-12-15T10:54:09.175Z,41.37
2018-12-15T10:56:36.154Z,36.30
2018-12-15T10:59:03.255Z,37.70
2018-12-15T11:01:30.633Z,34.67
2018-12-15T11:04:00.744Z,34.40
2018-12-15T11:06:26.815Z,33.87
2018-12-15T11:08:53.674Z,34.80
2018-12-15T11:11:20.675Z,31.50
2018-12-15T11:13:47.651Z,29.33
2018-12-15T11:16:14.756Z,29.33
2018-12-15T11:18:41.636Z,29.30
2018-12-15T11:21:08.637Z,29.10
2018-12-15T11:23:35.669Z,29.60
2018-12-15T11:26:02.669Z,28.13
2018-12-15T11:28:29.718Z,29.43
2018-12-15T11:30:56.669Z,27.83
2018-12-15T11:33:23.691Z,27.03
2018-12-15T11:35:50.694Z,28.50
2018-12-15T11:38:17.997Z,25.43
2018-12-15T11:40:45.099Z,27.37
2018-12-15T11:43:12.145Z,29.43
2018-12-15T11:45:39.226Z,26.53
2018-12-15T11:48:06.171Z,27.07
2018-12-15T11:50:33.190Z,25.57
2018-12-15T11:53:00.192Z,24.83
2018-12-15T11:55:27.276Z,27.50
2018-12-15T11:57:54.771Z,23.83
2018-12-15T12:00:21.794Z,23.57
2018-12-15T12:02:48.750Z,24.47
2018-12-15T12:05:15.943Z,25.27
2018-12-15T12:07:42.932Z,24.03
2018-12-15T12:10:10.241Z,23.53
2018-12-15T12:12:37.313Z,25.23
2018-12-15T12:15:05.160Z,22.63
2018-12-15T12:17:32.128Z,25.80
2018-12-15T12:19:59.008Z,29.03
2018-12-15T12:22:32.979Z,26.93
2018-12-15T12:25:00.025Z,31.47
2018-12-15T12:27:26.958Z,27.47
2018-12-15T12:29:53.974Z,27.63
2018-12-15T12:32:21.218Z,25.47
2018-12-15T12:34:48.200Z,31.97
2018-12-15T12:37:15.151Z,25.57
2018-12-15T12:39:42.126Z,24.13
2018-12-15T12:42:16.112Z,24.60
2018-12-15T12:44:43.085Z,25.43
2018-12-15T12:47:10.163Z,25.50
2018-12-15T12:49:37.049Z,23.90
2018-12-15T12:52:04.031Z,27.97
2018-12-15T12:54:30.890Z,24.97
2018-12-15T12:56:58.091Z,23.27
2018-12-15T12:59:25.085Z,26.13
2018-12-15T13:01:51.837Z,24.33
2018-12-15T13:04:19.356Z,22.60
2018-12-15T13:06:46.374Z,25.93
2018-12-15T13:09:13.514Z,23.37
2018-12-15T13:11:40.935Z,28.07
2018-12-15T13:14:08.007Z,23.70
2018-12-15T13:16:35.028Z,23.90
2018-12-15T13:19:02.053Z,25.13
2018-12-15T13:21:29.093Z,25.73
2018-12-15T13:23:56.161Z,22.63
2018-12-15T13:26:23.212Z,24.83
2018-12-15T13:28:50.132Z,26.10
2018-12-15T13:31:17.153Z,22.80
2018-12-15T13:33:44.172Z,22.30
2018-12-15T13:36:12.693Z,22.53
2018-12-15T13:38:40.213Z,22.77
2018-12-15T13:41:07.453Z,23.63
2018-12-15T13:43:34.573Z,22.20
2018-12-15T13:46:01.708Z,25.13
2018-12-15T13:48:28.672Z,22.27
2018-12-15T13:50:55.691Z,24.43
2018-12-15T13:53:22.723Z,25.30
2018-12-15T13:55:49.671Z,21.10
2018-12-15T13:58:16.613Z,22.83
2018-12-15T14:00:43.653Z,23.33
2018-12-15T14:03:10.592Z,20.07
2018-12-15T14:05:37.671Z,23.27
2018-12-15T14:08:05.031Z,24.20
2018-12-15T14:10:31.873Z,22.33
2018-12-15T14:12:58.757Z,21.17
2018-12-15T14:15:25.707Z,20.70
2018-12-15T14:17:52.946Z,18.20
2018-12-15T14:20:19.900Z,24.50
2018-12-15T14:22:47.361Z,21.30
2018-12-15T14:25:14.712Z,24.53
2018-12-15T14:27:41.616Z,23.37
2018-12-15T14:30:08.692Z,21.13
2018-12-15T14:32:35.660Z,21.97
2018-12-15T14:35:03.725Z,21.63
2018-12-15T14:37:30.769Z,19.30
2018-12-15T14:39:57.891Z,24.23
2018-12-15T14:42:24.953Z,23.43
2018-12-15T14:44:51.949Z,24.20
2018-12-15T14:47:19.069Z,27.93
2018-12-15T14:49:53.143Z,25.87
2018-12-15T14:52:20.123Z,21.93
2018-12-15T14:54:47.167Z,24.30
2018-12-15T14:57:16.154Z,22.93
2018-12-15T14:59:43.225Z,20.13
2018-12-15T15:02:17.594Z,20.43
2018-12-15T15:04:45.013Z,22.03
2018-12-15T15:07:12.038Z,22.67
2018-12-15T15:09:38.993Z,23.87
2018-12-15T15:12:05.909Z,19.83
2018-12-15T15:14:32.980Z,22.13
2018-12-15T15:16:59.971Z,24.00
2018-12-15T15:19:27.129Z,33.60
2018-12-15T15:21:54.005Z,31.67
2018-12-15T15:24:21.866Z,35.60
2018-12-15T15:26:48.967Z,38.40
2018-12-15T15:29:15.881Z,35.63
2018-12-15T15:31:43.116Z,38.43
2018-12-15T15:34:10.121Z,36.70
2018-12-15T15:36:37.181Z,41.17
2018-12-15T15:39:06.360Z,42.23
2018-12-15T15:41:33.301Z,42.63
2018-12-15T15:44:00.300Z,45.03
2018-12-15T15:46:28.505Z,45.07
2018-12-15T15:48:55.505Z,39.57
2018-12-15T15:51:24.235Z,47.70
2018-12-15T15:53:51.464Z,40.77
2018-12-15T15:56:18.446Z,41.67
2018-12-15T15:58:45.385Z,44.57
2018-12-15T16:01:12.325Z,39.70
2018-12-15T16:03:39.547Z,41.90
2018-12-15T16:06:06.592Z,44.07
2018-12-15T16:08:33.905Z,38.53
2018-12-15T16:11:00.985Z,42.40
2018-12-15T16:13:27.995Z,44.43
2018-12-15T16:15:55.335Z,40.83
2018-12-15T16:18:22.305Z,43.80
2018-12-15T16:20:49.252Z,41.00
2018-12-15T16:23:16.274Z,40.77
2018-12-15T16:25:43.274Z,42.33
2018-12-15T16:28:10.233Z,43.77
2018-12-15T16:30:37.240Z,41.50
2018-12-15T16:33:11.223Z,39.93
2018-12-15T16:35:38.259Z,42.27
2018-12-15T16:38:05.164Z,41.83
2018-12-15T16:40:39.239Z,43.43
2018-12-15T16:43:06.372Z,46.70
2018-12-15T16:45:33.494Z,51.03
2018-12-15T16:48:00.448Z,47.60
2018-12-15T16:50:27.974Z,44.17
2018-12-15T16:52:55.234Z,45.90
2018-12-15T16:55:22.238Z,48.67
2018-12-15T16:57:49.206Z,49.60
2018-12-15T17:00:16.166Z,47.23
2018-12-15T17:02:43.199Z,46.70
2018-12-15T17:05:10.299Z,47.77
2018-12-15T17:07:37.338Z,48.90
2018-12-15T17:10:06.219Z,50.10
2018-12-15T17:12:33.737Z,51.27
2018-12-15T17:15:00.698Z,50.23
2018-12-15T17:17:27.638Z,48.07
2018-12-15T17:19:54.861Z,50.73
2018-12-15T17:22:21.798Z,47.63
2018-12-15T17:24:49.038Z,51.07
2018-12-15T17:27:27.058Z,47.80
2018-12-15T17:29:54.581Z,49.33
2018-12-15T17:32:21.580Z,48.77
2018-12-15T17:34:48.623Z,47.90
2018-12-15T17:37:15.659Z,45.57
2018-12-15T17:39:42.679Z,83.73
2018-12-15T17:42:09.673Z,52.27
2018-12-15T17:44:36.631Z,50.63
2018-12-15T17:47:03.671Z,48.90
2018-12-15T17:49:30.592Z,48.57
2018-12-15T17:51:57.652Z,49.50
2018-12-15T17:54:24.632Z,47.07
2018-12-15T17:56:51.711Z,47.20
2018-12-15T17:59:18.690Z,50.77
2018-12-15T18:01:45.731Z,51.53
2018-12-15T18:04:12.671Z,52.03
2018-12-15T18:06:39.595Z,46.17
2018-12-15T18:09:06.951Z,51.23
2018-12-15T18:11:33.932Z,49.00
2018-12-15T18:14:00.893Z,48.33
2018-12-15T18:16:27.851Z,49.57
2018-12-15T18:18:55.192Z,49.57
2018-12-15T18:21:22.171Z,43.70
2018-12-15T18:23:49.112Z,43.07
2018-12-15T18:26:16.451Z,46.90
2018-12-15T18:28:43.451Z,51.70
2018-12-15T18:31:10.431Z,47.27
2018-12-15T18:33:44.383Z,52.30
2018-12-15T18:36:11.211Z,51.03
2018-12-15T18:38:38.459Z,48.73
2018-12-15T18:41:05.498Z,47.53
2018-12-15T18:43:32.578Z,49.17
2018-12-15T18:45:59.526Z,47.93
2018-12-15T18:48:26.604Z,53.50
2018-12-15T18:50:53.598Z,49.30
2018-12-15T18:53:20.477Z,53.33
2018-12-15T18:55:47.410Z,46.67
2018-12-15T18:58:14.354Z,50.63
2018-12-15T19:00:41.376Z,54.07
2018-12-15T19:03:08.433Z,52.00
2018-12-15T19:05:36.092Z,49.83
2018-12-15T19:08:10.013Z,51.67
2018-12-15T19:10:37.461Z,51.40
2018-12-15T19:13:04.518Z,45.20
2018-12-15T19:15:31.482Z,51.33
2018-12-15T19:17:58.743Z,48.77
2018-12-15T19:20:25.701Z,47.40
2018-12-15T19:22:52.662Z,50.27
2018-12-15T19:25:19.741Z,45.77
2018-12-15T19:27:46.702Z,48.23
2018-12-15T19:30:13.742Z,54.93
2018-12-15T19:32:47.681Z,50.23
2018-12-15T19:35:14.741Z,52.37
2018-12-15T19:37:41.721Z,47.57
2018-12-15T19:40:08.679Z,45.17
2018-12-15T19:42:35.706Z,48.40
2018-12-15T19:45:03.781Z,44.93
2018-12-15T19:47:30.761Z,46.20
2018-12-15T19:49:57.763Z,44.63
2018-12-15T19:52:24.783Z,47.33
2018-12-15T19:54:51.982Z,48.97
2018-12-15T19:57:18.941Z,51.37
2018-12-15T19:59:45.950Z,49.93
2018-12-15T20:02:15.858Z,46.53
2018-12-15T20:04:42.878Z,47.33
2018-12-15T20:07:09.860Z,50.37
2018-12-15T20:09:36.878Z,48.73
2018-12-15T20:12:03.978Z,45.73
2018-12-15T20:14:30.939Z,50.07
2018-12-15T20:16:57.901Z,47.10
2018-12-15T20:19:25.198Z,46.07
2018-12-15T20:21:52.118Z,49.60
2018-12-15T20:24:19.137Z,51.97
2018-12-15T20:26:46.138Z,52.70
2018-12-15T20:29:13.181Z,47.37
2018-12-15T20:31:40.180Z,54.63
2018-12-15T20:34:07.179Z,55.50
2018-12-15T20:36:34.158Z,46.30
2018-12-15T20:39:01.199Z,50.00
2018-12-15T20:41:29.118Z,48.27
2018-12-15T20:43:56.098Z,44.93
2018-12-15T20:46:24.148Z,51.93
2018-12-15T20:48:51.457Z,45.17
2018-12-15T20:51:18.458Z,50.73
2018-12-15T20:53:45.387Z,49.23
2018-12-15T20:56:12.399Z,46.60
2018-12-15T20:58:39.438Z,46.13
2018-12-15T21:01:06.539Z,54.93
2018-12-15T21:03:33.499Z,45.40
2018-12-15T21:06:01.538Z,50.33
2018-12-15T21:08:28.618Z,49.40
2018-12-15T21:10:56.138Z,48.43
2018-12-15T21:13:23.400Z,48.93
2018-12-15T21:15:53.098Z,48.07
2018-12-15T21:18:20.619Z,47.70
2018-12-15T21:20:48.418Z,52.30
2018-12-15T21:23:15.499Z,47.83
2018-12-15T21:25:42.499Z,46.73
2018-12-15T21:28:09.479Z,47.47
2018-12-15T21:30:36.539Z,42.43
2018-12-15T21:33:03.761Z,45.47
2018-12-15T21:35:30.744Z,44.77
2018-12-15T21:37:57.759Z,43.87
2018-12-15T21:40:24.800Z,40.73
2018-12-15T21:42:51.740Z,44.47
2018-12-15T21:45:18.760Z,44.87
2018-12-15T21:47:45.758Z,42.43
2018-12-15T21:50:12.721Z,38.43
2018-12-15T21:52:39.793Z,38.97
2018-12-15T21:55:06.833Z,39.97
2018-12-15T21:57:33.832Z,41.03
2018-12-15T22:00:00.835Z,38.63
2018-12-15T22:02:28.496Z,42.43
2018-12-15T22:04:55.693Z,42.20
2018-12-15T22:07:23.174Z,42.83
2018-12-15T22:09:50.273Z,39.60
2018-12-15T22:12:17.332Z,39.63
2018-12-15T22:14:44.634Z,38.47
2018-12-15T22:17:18.613Z,40.63
2018-12-15T22:19:45.612Z,40.27
2018-12-15T22:22:12.613Z,38.47
2018-12-15T22:24:40.020Z,39.97
2018-12-15T22:27:07.016Z,38.17
2018-12-15T22:29:34.032Z,37.97
2018-12-15T22:32:01.564Z,38.67
2018-12-15T22:34:28.542Z,37.93
2018-12-15T22:36:55.623Z,40.63
2018-12-15T22:39:22.601Z,37.57
2018-12-15T22:41:49.601Z,39.90
2018-12-15T22:44:16.522Z,38.97
2018-12-15T22:46:43.583Z,40.53
2018-12-15T22:49:10.540Z,39.57
2018-12-15T22:51:37.582Z,39.13
2018-12-15T22:54:04.561Z,41.60
2018-12-15T22:56:31.502Z,41.87
2018-12-15T22:58:58.481Z,36.63
2018-12-15T23:01:25.741Z,39.73
2018-12-15T23:03:52.861Z,39.00
2018-12-15T23:06:19.821Z,40.37
2018-12-15T23:08:46.820Z,38.87
2018-12-15T23:11:20.761Z,40.73
2018-12-15T23:13:47.820Z,40.07
2018-12-15T23:16:14.801Z,40.40
2018-12-15T23:18:41.860Z,39.40
2018-12-15T23:21:08.882Z,40.77
2018-12-15T23:23:35.921Z,35.97
2018-12-15T23:26:02.900Z,39.60
2018-12-15T23:28:29.864Z,36.10
2018-12-15T23:30:56.822Z,36.97
2018-12-15T23:33:23.881Z,35.97
2018-12-15T23:35:50.861Z,37.50
2018-12-15T23:38:17.882Z,36.13
2018-12-15T23:40:44.840Z,41.57
2018-12-15T23:43:11.903Z,38.87
2018-12-15T23:45:38.941Z,38.37
2018-12-15T23:48:05.981Z,41.33
2018-12-15T23:50:33.241Z,44.37
2018-12-15T23:53:00.200Z,39.77
2018-12-15T23:55:34.641Z,39.77
2018-12-15T23:58:01.599Z,37.73
